Time,TemperatureF,DewpointF,PressureIn,WindDirection,WindDirectionDegrees,WindSpeedMPH,WindSpeedGustMPH,Humidity,HourlyPrecipIn,Conditions,Clouds,dailyrainin,SolarRadiationWatts/m^2,SoftwareType,DateUTC
2013-05-20 00:00:00,69.0,58.0,-100.00,SSE,157,0.0,-999.0,69,-99.99,,,-99.99,0.000000,,2013-05-20 04:00:00,
2013-05-20 00:43:00,69.0,58.0,-100.00,SSE,157,0.0,-999.0,69,-99.99,,,-99.99,0.000000,,2013-05-20 04:43:00,
2013-05-20 00:53:00,69.0,58.0,-100.00,SSE,157,0.0,-999.0,69,-99.99,,,-99.99,0.000000,,2013-05-20 04:53:00,
2013-05-20 01:00:00,66.0,58.0,-100.00,SSE,157,0.0,-999.0,75,-99.99,,,-99.99,0.000000,,2013-05-20 05:00:00,
2013-05-20 01:42:00,66.0,58.0,-100.00,SSE,157,0.0,-999.0,75,-99.99,,,-99.99,0.000000,,2013-05-20 05:42:00,
2013-05-20 01:52:00,66.0,58.0,-100.00,SSE,157,0.0,-999.0,75,-99.99,,,-99.99,0.000000,,2013-05-20 05:52:00,
2013-05-20 02:00:00,63.0,57.0,-100.00,SSE,157,0.0,-999.0,81,-99.99,,,-99.99,0.000000,,2013-05-20 06:00:00,
2013-05-20 02:42:00,63.0,57.0,-100.00,SSE,157,0.0,-999.0,81,-99.99,,,-99.99,0.000000,,2013-05-20 06:42:00,
2013-05-20 02:52:00,63.0,57.0,-100.00,SSE,157,0.0,-999.0,81,-99.99,,,-99.99,0.000000,,2013-05-20 06:52:00,
2013-05-20 05:00:00,63.0,58.0,-100.00,SE,135,0.0,-999.0,85,-99.99,,,-99.99,0.000000,,2013-05-20 09:00:00,
2013-05-20 05:43:00,63.0,58.0,-100.00,SE,135,0.0,-999.0,85,-99.99,,,-99.99,0.000000,,2013-05-20 09:43:00,
2013-05-20 05:53:00,63.0,58.0,-100.00,SE,135,0.0,-999.0,85,-99.99,,,-99.99,0.000000,,2013-05-20 09:53:00,
2013-05-20 06:00:00,60.0,57.0,-100.00,NW,315,0.0,-999.0,89,-99.99,,,-99.99,0.000000,,2013-05-20 10:00:00,
2013-05-20 06:42:00,60.0,57.0,-100.00,NW,315,0.0,-999.0,89,-99.99,,,-99.99,0.000000,,2013-05-20 10:42:00,
2013-05-20 06:52:00,60.0,57.0,-100.00,NW,315,0.0,-999.0,89,-99.99,,,-99.99,0.000000,,2013-05-20 10:52:00,
2013-05-20 07:00:00,61.0,58.0,-100.00,East,90,0.0,-999.0,90,-99.99,,,-99.99,15.080000,,2013-05-20 11:00:00,
2013-05-20 07:42:00,61.0,58.0,-100.00,East,90,0.0,-999.0,90,-99.99,,,-99.99,15.080000,,2013-05-20 11:42:00,
2013-05-20 07:52:00,61.0,58.0,-100.00,East,90,0.0,-999.0,90,-99.99,,,-99.99,15.080000,,2013-05-20 11:52:00,
2013-05-20 08:00:00,65.0,60.0,-100.00,SSE,157,0.0,-999.0,83,-99.99,,,-99.99,99.760002,,2013-05-20 12:00:00,
2013-05-20 08:42:00,65.0,60.0,-100.00,SSE,157,0.0,-999.0,83,-99.99,,,-99.99,99.760002,,2013-05-20 12:42:00,
2013-05-20 08:52:00,65.0,60.0,-100.00,SSE,157,0.0,-999.0,83,-99.99,,,-99.99,99.760002,,2013-05-20 12:52:00,
2013-05-20 10:00:00,71.0,62.0,-100.00,SSW,202,2.0,-999.0,74,-99.99,,,-99.99,174.000000,,2013-05-20 14:00:00,
2013-05-20 10:42:00,71.0,62.0,-100.00,SSW,202,2.0,-999.0,74,-99.99,,,-99.99,174.000000,,2013-05-20 14:42:00,
2013-05-20 10:52:00,71.0,62.0,-100.00,SSW,202,2.0,-999.0,74,-99.99,,,-99.99,174.000000,,2013-05-20 14:52:00,
2013-05-20 11:00:00,71.0,64.0,-100.00,South,180,1.0,-999.0,79,-99.99,,,-99.99,184.440002,,2013-05-20 15:00:00,
2013-05-20 11:42:00,71.0,64.0,-100.00,South,180,1.0,-999.0,79,-99.99,,,-99.99,184.440002,,2013-05-20 15:42:00,
2013-05-20 11:53:00,71.0,64.0,-100.00,South,180,1.0,-999.0,79,-99.99,,,-99.99,184.440002,,2013-05-20 15:53:00,
2013-05-20 12:00:00,75.0,65.0,-100.00,SSE,157,1.0,-999.0,72,-99.99,,,-99.99,595.080017,,2013-05-20 16:00:00,
2013-05-20 12:42:00,75.0,65.0,-100.00,SSE,157,1.0,-999.0,72,-99.99,,,-99.99,595.080017,,2013-05-20 16:42:00,
2013-05-20 12:53:00,75.0,65.0,-100.00,SSE,157,1.0,-999.0,72,-99.99,,,-99.99,595.080017,,2013-05-20 16:53:00,
2013-05-20 13:00:00,79.0,66.0,-100.00,SSE,157,2.0,-999.0,63,-99.99,,,-99.99,657.719971,,2013-05-20 17:00:00,
2013-05-20 13:45:00,79.0,66.0,-100.00,SSE,157,2.0,-999.0,63,-99.99,,,-99.99,657.719971,,2013-05-20 17:45:00,
2013-05-20 13:53:00,79.0,66.0,-100.00,SSE,157,2.0,-999.0,63,-99.99,,,-99.99,657.719971,,2013-05-20 17:53:00,
2013-05-20 14:00:00,82.0,65.0,-100.00,South,180,2.0,-999.0,56,-99.99,,,-99.99,661.200012,,2013-05-20 18:00:00,
2013-05-20 14:42:00,82.0,65.0,-100.00,South,180,2.0,-999.0,56,-99.99,,,-99.99,661.200012,,2013-05-20 18:42:00,
2013-05-20 14:55:00,82.0,65.0,-100.00,South,180,2.0,-999.0,56,-99.99,,,-99.99,661.200012,,2013-05-20 18:55:00,
2013-05-20 16:00:00,85.0,64.0,-100.00,South,180,3.0,-999.0,51,-99.99,,,-99.99,438.480011,,2013-05-20 20:00:00,
2013-05-20 16:42:00,85.0,64.0,-100.00,South,180,3.0,-999.0,51,-99.99,,,-99.99,438.480011,,2013-05-20 20:42:00,
2013-05-20 16:52:00,85.0,64.0,-100.00,South,180,3.0,-999.0,51,-99.99,,,-99.99,438.480011,,2013-05-20 20:52:00,
2013-05-20 18:00:00,86.0,60.0,-100.00,SSW,202,7.0,-999.0,40,-99.99,,,-99.99,382.799988,,2013-05-20 22:00:00,
2013-05-20 18:42:00,86.0,60.0,-100.00,SSW,202,7.0,-999.0,40,-99.99,,,-99.99,382.799988,,2013-05-20 22:42:00,
2013-05-20 18:53:00,86.0,60.0,-100.00,SSW,202,7.0,-999.0,40,-99.99,,,-99.99,382.799988,,2013-05-20 22:53:00,
2013-05-20 19:00:00,86.0,56.0,-100.00,SSW,202,11.0,-999.0,36,-99.99,,,-99.99,274.920013,,2013-05-20 23:00:00,
2013-05-20 19:42:00,86.0,56.0,-100.00,SSW,202,11.0,-999.0,36,-99.99,,,-99.99,274.920013,,2013-05-20 23:42:00,
2013-05-20 19:53:00,86.0,56.0,-100.00,SSW,202,11.0,-999.0,36,-99.99,,,-99.99,274.920013,,2013-05-20 23:53:00,
2013-05-20 20:00:00,83.0,58.0,-100.00,WSW,247,6.0,-999.0,43,-99.99,,,-99.99,39.439999,,2013-05-21 00:00:00,
2013-05-20 20:42:00,83.0,58.0,-100.00,WSW,247,6.0,-999.0,43,-99.99,,,-99.99,39.439999,,2013-05-21 00:42:00,
2013-05-20 20:52:00,83.0,58.0,-100.00,WSW,247,6.0,-999.0,43,-99.99,,,-99.99,39.439999,,2013-05-21 00:52:00,
2013-05-20 21:00:00,74.0,58.0,-100.00,SW,225,1.0,-999.0,56,-99.99,,,-99.99,8.120000,,2013-05-21 01:00:00,
2013-05-20 21:42:00,74.0,58.0,-100.00,SW,225,1.0,-999.0,56,-99.99,,,-99.99,8.120000,,2013-05-21 01:42:00,
2013-05-20 21:53:00,74.0,58.0,-100.00,SW,225,1.0,-999.0,56,-99.99,,,-99.99,8.120000,,2013-05-21 01:53:00,
2013-05-20 22:00:00,69.0,59.0,-100.00,NW,315,0.0,-999.0,68,-99.99,,,-99.99,0.000000,,2013-05-21 02:00:00,
2013-05-20 22:42:00,69.0,59.0,-100.00,NW,315,0.0,-999.0,68,-99.99,,,-99.99,0.000000,,2013-05-21 02:42:00,
2013-05-20 22:52:00,69.0,59.0,-100.00,NW,315,0.0,-999.0,68,-99.99,,,-99.99,0.000000,,2013-05-21 02:52:00,
2013-05-20 23:00:00,67.0,59.0,-100.00,SW,225,0.0,-999.0,75,-99.99,,,-99.99,0.000000,,2013-05-21 03:00:00,
2013-05-20 23:43:00,67.0,59.0,-100.00,SW,225,0.0,-999.0,75,-99.99,,,-99.99,0.000000,,2013-05-21 03:43:00,
2013-05-20 23:54:00,67.0,59.0,-100.00,SW,225,0.0,-999.0,75,-99.99,,,-99.99,0.000000,,2013-05-21 03:54:00,